Time;durP1;ratioP1;P1;durP2;ratioP2;P2;SDS_P1;SDS_P2;PMS_P1;PMS_P2;Temp;Humidity;BMP_temperature;BMP_pressure;BME280_temperature;BME280_humidity;BME280_pressure;Samples;Min_cycle;Max_cycle;Signal;HPM_P1;HPM_P2
2022/10/12 00:01:01;;;;;;;16.07;6.90;;;;;;;5.53;90.64;102333.03;5234806;28;20033;-78
2022/10/12 00:03:33;;;;;;;14.47;5.87;;;;;;;5.48;91.01;102330.28;5242317;28;20112;-79
2022/10/12 00:06:09;;;;;;;12.48;5.97;;;;;;;5.44;91.05;102344.84;5241637;28;20025;-79
2022/10/12 00:08:41;;;;;;;15.52;6.38;;;;;;;5.45;91.48;102333.66;5242666;28;20476;-78
2022/10/12 00:11:19;;;;;;;15.13;6.20;;;;;;;5.45;91.60;102341.41;5242452;28;20466;-78
2022/10/12 00:13:51;;;;;;;12.25;6.10;;;;;;;5.38;91.88;102331.69;5241276;28;20065;-78
2022/10/12 00:16:24;;;;;;;16.27;6.05;;;;;;;5.36;91.89;102335.94;5242355;28;20038;-77
2022/10/12 00:18:57;;;;;;;13.40;6.18;;;;;;;5.23;92.18;102329.47;5241822;28;20465;-78
2022/10/12 00:21:29;;;;;;;19.65;7.28;;;;;;;5.25;92.47;102333.00;5242444;28;20088;-76
2022/10/12 00:24:01;;;;;;;13.52;6.07;;;;;;;5.17;92.28;102328.38;5242195;28;20040;-77
2022/10/12 00:26:32;;;;;;;15.47;6.17;;;;;;;5.20;92.54;102337.13;5242275;28;20054;-77
2022/10/12 00:29:04;;;;;;;14.27;6.30;;;;;;;5.15;92.39;102341.25;5240262;28;20083;-77
2022/10/12 00:31:35;;;;;;;11.40;6.50;;;;;;;5.18;92.52;102336.19;5241925;28;20041;-78
2022/10/12 00:34:06;;;;;;;15.57;6.40;;;;;;;5.07;92.37;102337.50;5241442;28;20033;-78
2022/10/12 00:36:38;;;;;;;10.00;6.57;;;;;;;5.08;92.60;102334.13;5242136;28;20025;-77
2022/10/12 00:39:10;;;;;;;20.90;6.70;;;;;;;5.09;92.21;102329.00;5242066;28;20069;-77
2022/10/12 00:41:43;;;;;;;15.00;5.60;;;;;;;5.05;92.31;102332.28;5242057;28;20032;-77
2022/10/12 00:44:34;;;;;;;14.93;6.38;;;;;;;5.09;92.96;102339.34;5241937;28;20071;-77
2022/10/12 00:47:12;;;;;;;16.13;6.93;;;;;;;5.03;92.93;102339.13;5241415;28;20029;-78
2022/10/12 00:49:55;;;;;;;15.82;6.32;;;;;;;5.05;93.14;102336.59;5241380;28;20029;-78
2022/10/12 00:52:45;;;;;;;15.60;6.53;;;;;;;5.06;92.87;102339.22;5242231;28;20056;-77
2022/10/12 00:55:18;;;;;;;18.88;6.97;;;;;;;5.07;92.98;102338.41;5242642;28;20025;-77
2022/10/12 00:57:53;;;;;;;15.77;7.10;;;;;;;5.13;93.64;102345.50;5242360;28;20037;-78
2022/10/12 01:00:25;;;;;;;15.85;5.97;;;;;;;5.18;93.40;102337.91;5241817;28;20111;-77
2022/10/12 01:02:57;;;;;;;16.73;5.97;;;;;;;5.17;93.44;102343.88;5241533;28;20116;-77
2022/10/12 01:05:28;;;;;;;13.80;6.23;;;;;;;5.28;93.51;102348.63;5241678;28;20030;-77
2022/10/12 01:08:01;;;;;;;15.73;5.90;;;;;;;5.32;93.30;102339.25;5241760;28;20036;-77
2022/10/12 01:10:32;;;;;;;18.30;6.43;;;;;;;5.31;93.57;102337.47;5241710;28;20026;-78
2022/10/12 01:13:05;;;;;;;13.93;6.70;;;;;;;5.36;93.73;102330.78;5241529;28;20469;-78
2022/10/12 01:15:41;;;;;;;17.80;6.70;;;;;;;5.29;93.59;102327.06;5241659;28;20079;-77
2022/10/12 01:18:20;;;;;;;20.55;7.13;;;;;;;5.35;93.99;102316.06;5241129;28;20108;-78
2022/10/12 01:21:18;;;;;;;18.85;6.47;;;;;;;5.34;94.26;102316.03;5241636;28;20108;-78
2022/10/12 01:24:19;;;;;;;13.20;7.03;;;;;;;5.35;94.35;102318.66;5241722;28;20037;-78
2022/10/12 01:26:57;;;;;;;13.65;6.15;;;;;;;5.33;94.01;102302.22;5242066;28;20038;-78
2022/10/12 01:30:04;;;;;;;17.65;6.50;;;;;;;5.39;94.29;102304.13;5241598;28;20029;-77
2022/10/12 01:33:06;;;;;;;15.07;5.97;;;;;;;5.39;94.16;102307.56;5237285;28;20042;-77
2022/10/12 01:35:45;;;;;;;19.25;7.10;;;;;;;5.26;94.18;102303.75;5241485;28;20057;-77
2022/10/12 01:38:27;;;;;;;12.40;6.10;;;;;;;5.21;94.21;102300.09;5241659;28;20034;-78
2022/10/12 01:41:14;;;;;;;16.38;6.78;;;;;;;5.20;94.98;102298.34;5241344;28;20033;-77
2022/10/12 01:43:46;;;;;;;14.38;7.72;;;;;;;5.15;95.09;102299.88;5241270;28;20461;-77
2022/10/12 01:46:17;;;;;;;19.47;6.80;;;;;;;5.17;94.94;102293.06;5241181;28;20048;-77
2022/10/12 01:48:53;;;;;;;13.17;6.20;;;;;;;5.15;95.15;102288.66;5240783;28;20108;-78
2022/10/12 01:51:39;;;;;;;17.20;7.13;;;;;;;5.09;95.75;102286.78;5241425;28;20033;-77
2022/10/12 01:54:24;;;;;;;14.48;6.90;;;;;;;5.09;95.53;102286.78;5241333;28;20043;-78
2022/10/12 01:57:15;;;;;;;24.52;8.02;;;;;;;5.06;95.74;102284.94;5242541;28;20029;-79
2022/10/12 01:59:53;;;;;;;20.48;7.72;;;;;;;5.04;95.88;102278.84;5239993;28;20108;-78
2022/10/12 02:02:43;;;;;;;20.17;7.65;;;;;;;5.04;96.30;102285.72;5244930;28;20075;-78
2022/10/12 02:05:23;;;;;;;14.68;6.82;;;;;;;5.02;96.27;102282.19;5244681;28;20029;-78
2022/10/12 02:08:04;;;;;;;13.43;6.88;;;;;;;5.00;96.13;102282.16;5244712;28;20025;-79
2022/10/12 02:10:50;;;;;;;14.75;7.38;;;;;;;5.01;96.78;102275.31;5244743;28;20034;-78
2022/10/12 02:13:25;;;;;;;18.08;7.63;;;;;;;4.98;96.46;102270.03;5244722;28;20040;-77
2022/10/12 02:15:59;;;;;;;16.75;7.18;;;;;;;4.95;96.63;102275.94;5244572;28;20461;-78
2022/10/12 02:18:34;;;;;;;15.77;7.53;;;;;;;4.95;96.74;102275.94;5242870;28;20037;-78
2022/10/12 02:21:08;;;;;;;11.65;7.38;;;;;;;4.89;96.93;102271.47;5244496;28;20354;-78
2022/10/12 02:23:40;;;;;;;17.20;7.43;;;;;;;4.86;96.99;102275.63;5244385;28;20116;-77
2022/10/12 02:26:13;;;;;;;13.75;6.45;;;;;;;4.83;97.45;102268.66;5243124;28;20573;-77
2022/10/12 02:28:48;;;;;;;20.02;8.15;;;;;;;4.75;97.47;102267.53;5244269;28;20034;-78
2022/10/12 02:31:41;;;;;;;16.60;8.15;;;;;;;4.80;97.76;102254.75;5244261;28;20033;-78
2022/10/12 02:34:20;;;;;;;17.25;8.07;;;;;;;4.77;97.38;102252.09;5244210;28;20033;-77
2022/10/12 02:36:59;;;;;;;12.95;7.00;;;;;;;4.80;97.31;102265.06;5244266;28;20079;-77
2022/10/12 02:39:41;;;;;;;14.07;6.53;;;;;;;4.71;97.71;102260.47;5243885;28;20036;-77
2022/10/12 02:42:20;;;;;;;10.50;6.22;;;;;;;4.68;97.41;102270.69;5244346;28;20037;-77
2022/10/12 02:44:54;;;;;;;18.92;7.03;;;;;;;4.62;97.39;102275.66;5243710;28;20104;-77
2022/10/12 02:47:27;;;;;;;19.42;7.35;;;;;;;4.55;97.61;102269.38;5243842;28;20097;-78
2022/10/12 02:50:00;;;;;;;14.13;6.93;;;;;;;4.47;97.83;102266.53;5243657;28;20038;-77
2022/10/12 02:52:32;;;;;;;16.40;7.65;;;;;;;4.43;97.80;102263.78;5243517;28;20040;-78
2022/10/12 02:55:04;;;;;;;14.63;7.40;;;;;;;4.38;98.08;102258.47;5243861;28;20357;-78
2022/10/12 02:57:35;;;;;;;20.90;7.55;;;;;;;4.36;98.33;102258.41;5243813;28;20047;-77
2022/10/12 03:00:08;;;;;;;19.17;8.27;;;;;;;4.26;98.19;102251.13;5243902;28;20030;-77
2022/10/12 03:02:39;;;;;;;15.63;7.63;;;;;;;4.23;98.51;102251.00;5243278;28;20473;-77
2022/10/12 03:05:10;;;;;;;15.07;8.57;;;;;;;4.18;98.35;102257.72;5243571;28;20036;-77
2022/10/12 03:07:42;;;;;;;16.00;7.27;;;;;;;4.15;98.68;102253.34;5243605;28;20448;-77
2022/10/12 03:10:13;;;;;;;17.30;6.80;;;;;;;4.04;98.45;102249.44;5243736;28;20128;-77
2022/10/12 03:12:44;;;;;;;15.57;7.70;;;;;;;4.02;98.57;102256.25;5243283;28;20037;-77
2022/10/12 03:15:16;;;;;;;13.57;8.57;;;;;;;3.98;98.48;102246.66;5241989;28;20147;-77
2022/10/12 03:17:47;;;;;;;15.67;7.70;;;;;;;3.90;98.63;102245.50;5242848;28;20025;-77
2022/10/12 03:20:19;;;;;;;16.00;7.90;;;;;;;3.87;98.66;102242.78;5243554;28;20030;-77
2022/10/12 03:22:50;;;;;;;15.77;8.17;;;;;;;3.82;99.13;102242.63;5243262;28;20041;-77
2022/10/12 03:25:22;;;;;;;21.93;7.57;;;;;;;3.77;99.20;102245.00;5243176;28;20045;-77
2022/10/12 03:27:53;;;;;;;14.27;7.70;;;;;;;3.78;99.37;102251.94;5243252;28;20083;-77
2022/10/12 03:30:24;;;;;;;17.27;8.47;;;;;;;3.86;99.49;102246.19;5243157;28;20029;-77
2022/10/12 03:32:56;;;;;;;15.20;7.97;;;;;;;3.79;99.26;102250.22;5242925;28;20021;-77
2022/10/12 03:35:27;;;;;;;14.67;7.90;;;;;;;3.73;99.02;102244.84;5243045;28;20037;-78
2022/10/12 03:37:59;;;;;;;15.90;7.60;;;;;;;3.74;99.42;102244.03;5242981;28;20481;-78
2022/10/12 03:40:30;;;;;;;17.23;8.50;;;;;;;3.67;98.94;102234.28;5242994;28;20033;-76
2022/10/12 03:43:01;;;;;;;19.00;8.07;;;;;;;3.65;99.25;102240.28;5242723;28;20033;-78
2022/10/12 03:45:33;;;;;;;15.20;7.87;;;;;;;3.69;99.48;102240.34;5243184;28;20079;-77
2022/10/12 03:48:06;;;;;;;16.83;9.23;;;;;;;3.63;99.82;102246.19;5242285;28;20519;-78
2022/10/12 03:50:37;;;;;;;22.77;9.95;;;;;;;3.63;99.94;102247.03;5242719;28;20108;-78
2022/10/12 03:53:08;;;;;;;21.23;8.93;;;;;;;3.67;100.00;102242.91;5242741;28;20549;-77
2022/10/12 03:55:40;;;;;;;17.40;8.77;;;;;;;3.67;100.00;102242.00;5243013;28;20108;-76
2022/10/12 03:58:12;;;;;;;14.07;8.43;;;;;;;3.68;100.00;102242.06;5241440;28;20033;-77
2022/10/12 04:00:43;;;;;;;17.05;9.60;;;;;;;3.69;100.00;102238.69;5242685;28;20018;-77
2022/10/12 04:03:15;;;;;;;17.43;8.80;;;;;;;3.66;100.00;102228.25;5242617;28;20060;-77
2022/10/12 04:05:56;;;;;;;17.97;8.67;;;;;;;3.75;100.00;102232.88;5242563;28;20477;-76
2022/10/12 04:08:29;;;;;;;23.60;8.50;;;;;;;3.68;100.00;102221.44;5242498;28;20029;-76
2022/10/12 04:11:00;;;;;;;18.83;8.70;;;;;;;3.74;100.00;102226.84;5242579;28;20044;-76
2022/10/12 04:13:32;;;;;;;25.77;9.90;;;;;;;3.74;100.00;102228.56;5242392;28;20034;-77
2022/10/12 04:16:05;;;;;;;17.10;9.47;;;;;;;3.72;100.00;102225.91;5242283;28;20037;-77
2022/10/12 04:18:36;;;;;;;15.43;9.98;;;;;;;3.74;100.00;102233.72;5241389;28;20392;-77
2022/10/12 04:21:11;;;;;;;15.90;10.67;;;;;;;3.73;100.00;102230.22;5242214;28;20030;-77
2022/10/12 04:23:43;;;;;;;14.60;9.23;;;;;;;3.74;100.00;102231.13;5241505;28;20028;-76
2022/10/12 04:26:14;;;;;;;16.60;10.67;;;;;;;3.78;100.00;102235.56;5243024;28;20046;-76
2022/10/12 04:28:45;;;;;;;17.27;9.73;;;;;;;3.75;100.00;102235.44;5241819;28;20025;-76
2022/10/12 04:31:17;;;;;;;17.10;9.60;;;;;;;3.72;100.00;102230.16;5242213;28;20029;-76
2022/10/12 04:33:55;;;;;;;20.43;11.27;;;;;;;3.67;100.00;102231.69;5242367;28;20053;-76
2022/10/12 04:36:26;;;;;;;20.00;9.55;;;;;;;3.67;100.00;102235.16;5242057;28;20060;-76
2022/10/12 04:38:57;;;;;;;14.03;8.60;;;;;;;3.58;100.00;102224.50;5242103;28;20041;-76
2022/10/12 04:41:29;;;;;;;16.53;9.60;;;;;;;3.64;100.00;102223.03;5242127;28;20030;-76
2022/10/12 04:44:00;;;;;;;17.37;10.33;;;;;;;3.62;100.00;102229.84;5241948;28;20128;-75
2022/10/12 04:46:32;;;;;;;16.50;9.10;;;;;;;3.63;100.00;102236.72;5241891;28;20056;-76
2022/10/12 04:49:03;;;;;;;13.97;9.13;;;;;;;3.64;100.00;102237.63;5241422;28;20061;-76
2022/10/12 04:51:34;;;;;;;14.40;8.60;;;;;;;3.62;100.00;102239.25;5242314;28;20080;-76
2022/10/12 04:54:06;;;;;;;17.07;9.63;;;;;;;3.56;100.00;102232.16;5241691;28;20113;-76
2022/10/12 04:56:37;;;;;;;15.27;10.10;;;;;;;3.61;100.00;102238.38;5241734;28;20037;-75
2022/10/12 04:59:08;;;;;;;14.93;9.93;;;;;;;3.59;100.00;102244.28;5241934;28;20083;-75
2022/10/12 05:01:40;;;;;;;19.53;11.10;;;;;;;3.55;100.00;102242.41;5241622;28;20519;-76
2022/10/12 05:04:11;;;;;;;16.87;9.27;;;;;;;3.55;100.00;102243.28;5241564;28;20033;-76
2022/10/12 05:06:42;;;;;;;18.90;10.17;;;;;;;3.50;100.00;102236.22;5241535;28;20120;-76
2022/10/12 05:09:14;;;;;;;19.90;10.93;;;;;;;3.44;100.00;102232.53;5241656;28;20056;-76
2022/10/12 05:11:45;;;;;;;18.63;10.27;;;;;;;3.37;100.00;102230.56;5240583;28;20477;-76
2022/10/12 05:14:17;;;;;;;24.40;9.63;;;;;;;3.34;100.00;102221.81;5241884;28;20030;-76
2022/10/12 05:16:48;;;;;;;20.13;10.00;;;;;;;3.33;100.00;102226.06;5241688;28;20107;-76
2022/10/12 05:19:19;;;;;;;16.73;10.10;;;;;;;3.27;100.00;102220.69;5241117;28;20049;-75
2022/10/12 05:21:53;;;;;;;18.73;9.10;;;;;;;3.27;100.00;102221.56;5241656;28;20040;-75
2022/10/12 05:24:24;;;;;;;16.80;8.45;;;;;;;3.26;100.00;102216.34;5241305;28;20068;-75
2022/10/12 05:26:56;;;;;;;16.37;9.90;;;;;;;3.23;100.00;102211.94;5241826;28;20030;-76
2022/10/12 05:29:27;;;;;;;16.10;9.77;;;;;;;3.24;100.00;102218.88;5241374;28;20087;-75
2022/10/12 05:31:58;;;;;;;18.43;10.33;;;;;;;3.19;100.00;102210.09;5241581;28;20087;-75
2022/10/12 05:34:30;;;;;;;15.50;9.43;;;;;;;3.14;100.00;102205.53;5242388;28;20029;-76
2022/10/12 05:37:02;;;;;;;16.87;9.67;;;;;;;3.17;100.00;102208.25;5245425;28;20538;-76
2022/10/12 05:39:33;;;;;;;15.80;9.73;;;;;;;3.14;100.00;102198.72;5245371;28;20770;-76
2022/10/12 05:42:05;;;;;;;15.27;9.47;;;;;;;3.15;100.00;102205.59;5244199;28;20377;-75
2022/10/12 05:44:36;;;;;;;16.33;9.30;;;;;;;3.15;100.00;102215.91;5245416;28;20025;-76
2022/10/12 05:47:07;;;;;;;20.80;11.47;;;;;;;3.10;100.00;102202.84;5244952;28;20063;-82
2022/10/12 05:49:39;;;;;;;16.73;9.50;;;;;;;3.17;100.00;102208.25;5244598;28;20465;-75
2022/10/12 05:52:10;;;;;;;13.53;9.73;;;;;;;3.17;100.00;102193.69;5244852;28;20029;-75
2022/10/12 05:54:41;;;;;;;19.50;9.00;;;;;;;3.26;100.00;102201.75;5244638;28;20037;-76
2022/10/12 05:57:14;;;;;;;15.60;9.73;;;;;;;3.33;100.00;102210.63;5244863;28;20063;-75
2022/10/12 05:59:45;;;;;;;19.45;10.15;;;;;;;3.34;100.00;102206.34;5244737;28;20373;-75
2022/10/12 06:02:17;;;;;;;20.60;10.30;;;;;;;3.39;100.00;102213.44;5243204;28;20083;-75
2022/10/12 06:04:48;;;;;;;17.07;9.50;;;;;;;3.44;100.00;102208.47;5244505;28;20045;-75
2022/10/12 06:07:19;;;;;;;15.00;9.27;;;;;;;3.51;100.00;102215.66;5244637;28;20384;-75
2022/10/12 06:09:51;;;;;;;22.87;10.40;;;;;;;3.56;100.00;102216.69;5244545;28;20029;-75
2022/10/12 06:12:23;;;;;;;27.37;9.97;;;;;;;3.62;100.00;102214.38;5243310;28;20033;-76
2022/10/12 06:14:54;;;;;;;21.00;9.33;;;;;;;3.61;100.00;102212.59;5244509;28;20029;-75
2022/10/12 06:17:25;;;;;;;13.60;9.40;;;;;;;3.70;100.00;102213.75;5244049;28;20280;-76
2022/10/12 06:19:57;;;;;;;16.53;9.83;;;;;;;3.72;100.00;102205.28;5244580;28;20443;-75
2022/10/12 06:22:28;;;;;;;16.90;9.87;;;;;;;3.81;100.00;102205.59;5244399;28;20061;-75
2022/10/12 06:24:59;;;;;;;20.50;10.23;;;;;;;3.83;100.00;102197.91;5243991;28;20064;-75
2022/10/12 06:27:31;;;;;;;17.83;10.07;;;;;;;3.84;100.00;102203.13;5244285;28;20345;-76
2022/10/12 06:30:03;;;;;;;17.97;10.33;;;;;;;3.92;100.00;102207.72;5243949;28;20033;-75
2022/10/12 06:32:34;;;;;;;19.20;9.50;;;;;;;3.98;100.00;102206.25;5242913;28;20060;-76
2022/10/12 06:35:06;;;;;;;19.53;9.93;;;;;;;4.07;100.00;102208.28;5243919;28;20041;-76
2022/10/12 06:37:38;;;;;;;15.93;10.10;;;;;;;4.12;100.00;102208.44;5244315;28;20037;-75
2022/10/12 06:40:10;;;;;;;15.57;9.97;;;;;;;4.19;100.00;102200.13;5244016;28;20041;-75
2022/10/12 06:42:41;;;;;;;17.88;10.57;;;;;;;4.30;100.00;102197.91;5243941;28;20112;-76
2022/10/12 06:45:13;;;;;;;19.13;9.97;;;;;;;4.38;100.00;102201.66;5243869;28;20030;-76
2022/10/12 06:47:44;;;;;;;20.70;10.40;;;;;;;4.49;100.00;102202.03;5242936;28;20112;-75
2022/10/12 06:50:15;;;;;;;17.77;10.07;;;;;;;4.59;100.00;102201.53;5243937;28;20026;-75
2022/10/12 06:52:47;;;;;;;17.93;10.17;;;;;;;4.61;100.00;102199.00;5243944;28;20040;-76
2022/10/12 06:55:18;;;;;;;20.23;10.20;;;;;;;4.66;100.00;102195.75;5242527;28;20045;-75
2022/10/12 06:57:50;;;;;;;20.67;10.53;;;;;;;4.70;100.00;102199.28;5243673;28;20079;-75
2022/10/12 07:00:22;;;;;;;25.20;11.73;;;;;;;4.71;100.00;102199.34;5243708;28;20088;-75
2022/10/12 07:02:54;;;;;;;25.67;11.25;;;;;;;4.76;100.00;102209.84;5243588;28;20423;-75
2022/10/12 07:05:26;;;;;;;18.87;10.67;;;;;;;4.73;100.00;102213.22;5243581;28;20081;-75
2022/10/12 07:07:57;;;;;;;21.93;11.50;;;;;;;4.71;100.00;102209.69;5243413;28;20164;-75
2022/10/12 07:10:28;;;;;;;23.00;10.47;;;;;;;4.75;100.00;102216.72;5243363;28;20500;-75
2022/10/12 07:13:00;;;;;;;22.20;11.67;;;;;;;4.80;100.00;102208.22;5243495;28;20033;-75
2022/10/12 07:15:31;;;;;;;20.77;12.30;;;;;;;4.80;100.00;102208.22;5243125;28;20124;-75
2022/10/12 07:18:02;;;;;;;24.73;11.20;;;;;;;4.83;100.00;102208.34;5242661;28;20029;-76
2022/10/12 07:20:34;;;;;;;22.40;12.10;;;;;;;4.85;100.00;102199.81;5243543;28;20030;-75
2022/10/12 07:23:05;;;;;;;20.27;11.07;;;;;;;4.85;100.00;102201.53;5243657;28;20052;-76
2022/10/12 07:25:37;;;;;;;23.03;13.10;;;;;;;4.84;100.00;102198.06;5243131;28;20053;-75
2022/10/12 07:28:08;;;;;;;21.27;12.33;;;;;;;4.88;100.00;102199.06;5243087;28;20037;-76
2022/10/12 07:30:39;;;;;;;29.30;13.30;;;;;;;4.90;100.00;102192.22;5243015;28;20045;-75
2022/10/12 07:33:11;;;;;;;23.77;12.43;;;;;;;4.96;100.00;102189.84;5242760;28;20427;-75
2022/10/12 07:35:42;;;;;;;29.23;13.20;;;;;;;5.07;100.00;102195.34;5243206;28;20033;-75
2022/10/12 07:38:14;;;;;;;23.30;13.70;;;;;;;5.21;100.00;102190.63;5242961;28;20029;-75
2022/10/12 07:40:46;;;;;;;23.07;14.47;;;;;;;5.27;100.00;102201.19;5243163;28;20048;-76
2022/10/12 07:43:18;;;;;;;24.73;14.18;;;;;;;5.32;100.00;102199.63;5242939;28;20388;-75
2022/10/12 07:45:49;;;;;;;26.73;14.90;;;;;;;5.41;100.00;102199.91;5242700;28;20070;-76
2022/10/12 07:48:21;;;;;;;27.17;14.50;;;;;;;5.54;100.00;102202.84;5242284;28;20041;-75
2022/10/12 07:50:53;;;;;;;26.77;15.02;;;;;;;5.69;100.00;102208.50;5242688;28;20469;-75
2022/10/12 07:53:24;;;;;;;27.13;15.10;;;;;;;5.90;100.00;102200.50;5242709;28;20041;-76
2022/10/12 07:56:04;;;;;;;30.50;16.50;;;;;;;6.02;100.00;102197.41;5243385;28;20044;-75
2022/10/12 07:58:35;;;;;;;37.90;17.77;;;;;;;6.30;100.00;102216.34;5244468;28;20030;-74
2022/10/12 08:01:08;;;;;;;30.30;19.63;;;;;;;6.44;100.00;102215.00;5241743;28;20102;-75
2022/10/12 08:03:40;;;;;;;26.55;18.80;;;;;;;6.57;100.00;102211.91;5242896;28;20369;-76
2022/10/12 08:06:14;;;;;;;31.50;18.60;;;;;;;6.66;100.00;102210.38;5242327;28;20029;-75
2022/10/12 08:08:45;;;;;;;25.80;18.02;;;;;;;6.81;100.00;102215.09;5242422;28;20495;-75
2022/10/12 08:11:18;;;;;;;28.37;17.60;;;;;;;6.88;100.00;102220.47;5242325;28;20033;-75
2022/10/12 08:13:49;;;;;;;27.52;17.05;;;;;;;6.94;100.00;102214.59;5242323;28;20268;-75
2022/10/12 08:16:22;;;;;;;30.80;17.00;;;;;;;7.17;100.00;102219.47;5240922;28;20423;-75
2022/10/12 08:18:53;;;;;;;27.35;17.10;;;;;;;7.29;100.00;102218.03;5241789;28;20478;-75
2022/10/12 08:21:24;;;;;;;30.20;17.70;;;;;;;7.48;100.00;102215.84;5240992;28;20045;-75
2022/10/12 08:23:56;;;;;;;32.73;17.10;;;;;;;7.75;100.00;102210.41;5241769;28;20041;-76
2022/10/12 08:26:28;;;;;;;24.17;16.60;;;;;;;7.99;100.00;102207.47;5242123;28;20041;-76
2022/10/12 08:29:01;;;;;;;31.50;18.90;;;;;;;8.28;99.96;102198.50;5242027;28;20049;-76
2022/10/12 08:31:33;;;;;;;26.95;16.55;;;;;;;8.37;97.65;102196.97;5242018;28;20029;-76
2022/10/12 08:34:05;;;;;;;29.50;16.77;;;;;;;8.67;96.58;102202.72;5241650;28;20144;-76
2022/10/12 08:36:36;;;;;;;32.93;16.20;;;;;;;8.88;94.26;102202.22;5242100;28;20037;-76
2022/10/12 08:39:08;;;;;;;24.83;15.60;;;;;;;9.19;93.41;102200.13;5241959;28;20039;-76
2022/10/12 08:41:42;;;;;;;20.77;15.27;;;;;;;9.38;91.86;102199.53;5242041;28;20030;-76
2022/10/12 08:44:31;;;;;;;25.20;14.27;;;;;;;9.72;90.17;102207.81;5241924;28;20033;-76
2022/10/12 08:47:27;;;;;;;21.55;14.27;;;;;;;10.04;87.40;102205.63;5241942;28;20120;-76
2022/10/12 08:50:01;;;;;;;25.80;13.23;;;;;;;10.17;85.18;102206.66;5241556;28;20037;-76
2022/10/12 08:52:40;;;;;;;31.08;14.65;;;;;;;10.68;84.72;102209.84;5241851;28;20037;-76
2022/10/12 08:55:34;;;;;;;21.27;14.15;;;;;;;11.11;83.70;102210.22;5240993;28;20037;-77
2022/10/12 08:58:17;;;;;;;28.38;13.43;;;;;;;11.25;80.93;102209.44;5235390;28;20072;-76
2022/10/12 09:00:54;;;;;;;24.48;13.68;;;;;;;11.37;81.26;102208.69;5242230;28;20033;-77
2022/10/12 09:03:54;;;;;;;22.40;12.43;;;;;;;11.80;79.90;102224.56;5241611;28;20030;-76
2022/10/12 09:06:33;;;;;;;17.20;11.27;;;;;;;12.00;75.83;102217.75;5241787;28;20033;-76
2022/10/12 09:09:46;;;;;;;19.08;11.00;;;;;;;12.54;76.76;102210.09;5241915;28;20030;-76
2022/10/12 09:12:38;;;;;;;22.73;11.82;;;;;;;12.83;73.90;102224.94;5234878;28;20452;-76
2022/10/12 09:15:22;;;;;;;27.83;10.85;;;;;;;12.49;71.00;102222.25;5245963;28;20457;-75
2022/10/12 09:17:59;;;;;;;23.98;11.30;;;;;;;12.52;71.47;102229.25;5245441;28;20051;-75
2022/10/12 09:20:35;;;;;;;24.92;12.10;;;;;;;12.62;71.71;102227.53;5244236;28;20041;-74
2022/10/12 09:23:18;;;;;;;22.05;10.55;;;;;;;12.87;70.22;102231.06;5245351;28;20044;-75
2022/10/12 09:25:52;;;;;;;21.88;12.05;;;;;;;13.38;70.60;102224.09;5245441;28;20184;-75
2022/10/12 09:28:36;;;;;;;17.95;10.95;;;;;;;13.55;67.79;102221.44;5245820;28;20052;-76
2022/10/12 09:31:10;;;;;;;19.52;10.52;;;;;;;13.32;66.87;102222.34;5245472;28;20074;-75
2022/10/12 09:33:53;;;;;;;17.42;11.27;;;;;;;13.48;65.33;102219.72;5245079;28;20073;-75
2022/10/12 09:36:29;;;;;;;23.08;11.50;;;;;;;13.51;64.60;102217.09;5245550;28;20064;-76
2022/10/12 09:39:10;;;;;;;20.77;12.13;;;;;;;13.81;63.48;102221.38;5245062;28;20029;-75
2022/10/12 09:41:43;;;;;;;17.90;10.98;;;;;;;13.92;62.79;102220.44;5245495;28;20465;-76
2022/10/12 09:44:48;;;;;;;21.00;11.48;;;;;;;14.71;65.71;102218.31;5244270;28;20044;-75
2022/10/12 09:47:19;;;;;;;21.25;12.18;;;;;;;14.83;60.59;102223.47;5243341;28;20044;-75
2022/10/12 09:49:52;;;;;;;21.93;11.63;;;;;;;15.35;61.10;102226.53;5244619;28;20029;-75
2022/10/12 09:52:27;;;;;;;24.10;12.07;;;;;;;15.23;60.04;102217.00;5245251;28;20392;-75
2022/10/12 09:55:02;;;;;;;18.10;11.95;;;;;;;15.81;58.34;102221.69;5245435;28;20104;-75
2022/10/12 09:57:39;;;;;;;21.88;11.73;;;;;;;16.10;57.60;102209.06;5245354;28;20437;-75
2022/10/12 10:00:37;;;;;;;20.25;12.00;;;;;;;16.89;58.37;102204.44;5245755;28;20033;-75
2022/10/12 10:03:22;;;;;;;21.88;11.57;;;;;;;16.45;55.26;102199.81;5244371;28;20049;-75
2022/10/12 10:06:03;;;;;;;21.15;11.55;;;;;;;16.70;54.58;102195.91;5245061;28;20030;-75
2022/10/12 10:08:43;;;;;;;20.65;10.90;;;;;;;17.55;55.52;102194.47;5244738;28;20519;-76
2022/10/12 10:11:20;;;;;;;18.73;11.82;;;;;;;17.45;53.23;102184.97;5244800;28;20033;-75
2022/10/12 10:13:53;;;;;;;23.92;10.48;;;;;;;18.19;50.20;102172.91;5244591;28;20037;-76
2022/10/12 10:16:28;;;;;;;26.95;11.52;;;;;;;18.43;49.83;102179.41;5243249;28;20072;-75
2022/10/12 10:19:00;;;;;;;22.48;10.43;;;;;;;18.58;49.30;102186.13;5243655;28;20029;-76
2022/10/12 10:21:36;;;;;;;18.45;10.07;;;;;;;18.89;47.68;102188.03;5243506;28;20026;-75
2022/10/12 10:24:20;;;;;;;15.15;9.27;;;;;;;19.32;47.32;102192.22;5244279;28;20029;-75
2022/10/12 10:27:02;;;;;;;18.92;9.23;;;;;;;19.06;46.87;102187.59;5244057;28;20129;-75
2022/10/12 10:29:42;;;;;;;15.80;8.35;;;;;;;19.66;47.22;102178.03;5243172;28;20079;-75
2022/10/12 10:32:28;;;;;;;15.10;8.25;;;;;;;19.45;44.87;102200.66;5243912;28;20037;-75
2022/10/12 10:35:11;;;;;;;19.13;9.60;;;;;;;20.12;44.24;102189.06;5244478;28;20119;-75
2022/10/12 10:37:47;;;;;;;15.98;8.27;;;;;;;19.25;42.70;102191.47;5242947;28;20041;-75
2022/10/12 10:40:30;;;;;;;17.02;8.20;;;;;;;20.00;45.03;102195.59;5244075;28;20103;-75
2022/10/12 10:43:05;;;;;;;16.23;8.32;;;;;;;20.33;41.93;102177.78;5243831;28;20072;-75
2022/10/12 10:45:53;;;;;;;16.83;7.22;;;;;;;21.40;43.92;102177.78;5243930;28;20084;-75
2022/10/12 10:48:32;;;;;;;14.30;7.00;;;;;;;22.02;41.22;102170.19;5243396;28;20087;-75
2022/10/12 10:51:05;;;;;;;14.98;6.28;;;;;;;22.68;38.57;102172.00;5243965;28;20033;-75
2022/10/12 10:53:48;;;;;;;17.48;6.53;;;;;;;22.64;39.01;102173.06;5243552;28;20041;-75
2022/10/12 10:56:20;;;;;;;;;;;;;;;23.27;39.34;102168.59;5244302;28;20029;-76
2022/10/12 10:58:55;;;;;;;10.68;5.32;;;;;;;21.92;39.08;102166.16;5243497;28;19909;-76
2022/10/12 11:01:27;;;;;;;12.40;5.55;;;;;;;21.89;38.30;102159.16;5243412;28;20120;-75
2022/10/12 11:04:03;;;;;;;12.27;5.73;;;;;;;22.22;36.25;102151.66;5243959;28;20498;-75
2022/10/12 11:06:39;;;;;;;10.85;5.93;;;;;;;23.10;37.60;102150.72;5243630;28;20028;-75
2022/10/12 11:09:16;;;;;;;12.63;6.35;;;;;;;22.98;34.31;102147.72;5244151;28;20062;-75
2022/10/12 11:11:54;;;;;;;13.50;5.88;;;;;;;23.56;34.53;102146.94;5244049;28;20029;-75
2022/10/12 11:14:35;;;;;;;13.27;5.80;;;;;;;23.16;34.39;102146.91;5243154;28;20040;-75
2022/10/12 11:17:17;;;;;;;10.02;5.10;;;;;;;24.07;34.09;102133.91;5243166;28;20059;-76
2022/10/12 11:19:57;;;;;;;12.13;5.55;;;;;;;23.31;33.70;102132.06;5242802;28;20026;-75
2022/10/12 11:22:39;;;;;;;13.90;6.60;;;;;;;22.97;33.57;102130.00;5243299;28;20021;-75
2022/10/12 11:25:20;;;;;;;8.65;4.32;;;;;;;24.20;33.71;102111.06;5243257;28;20077;-74
2022/10/12 11:27:52;;;;;;;12.25;5.10;;;;;;;25.32;31.83;102117.81;5241904;28;20373;-75
2022/10/12 11:30:25;;;;;;;;;;;;;;;27.36;30.79;102124.78;5243369;28;20029;-76
2022/10/12 11:33:01;;;;;;;;;;;;;;;28.45;30.97;102098.94;5243008;28;19915;-75
2022/10/12 11:35:35;;;;;;;13.68;5.40;;;;;;;27.32;28.05;102108.03;5243071;28;19920;-76
2022/10/12 11:38:15;;;;;;;12.27;5.78;;;;;;;26.04;30.82;102099.59;5242483;28;20523;-75
2022/10/12 11:40:53;;;;;;;12.70;4.90;;;;;;;25.13;29.76;102088.53;5242773;28;20449;-75
2022/10/12 11:43:29;;;;;;;11.18;6.32;;;;;;;24.56;31.50;102083.53;5242787;28;20380;-75
2022/10/12 11:46:06;;;;;;;11.90;4.47;;;;;;;24.50;31.37;102071.34;5242625;28;20041;-75
2022/10/12 11:48:45;;;;;;;9.20;5.07;;;;;;;24.51;31.05;102078.41;5242464;28;20473;-75
2022/10/12 11:51:16;;;;;;;12.13;5.35;;;;;;;23.76;33.16;102071.44;5242643;28;20063;-75
2022/10/12 11:54:00;;;;;;;13.53;4.67;;;;;;;23.95;33.94;102076.78;5225123;28;20065;-75